Terminal Aerodrome Forecast
Issued by NWS Twin Cities, MN

Home | Current Version | Previous Version | Graphics & Text | Print | Product List | Glossary On
Versions: 1 2 3 4 5 6 7 8 9 10 11 12 13 14 15 16 17
000
FTUS43 KMPX 232200 AAA
TAFSTC
TAF AMD
KSTC 232231Z 2323/2418 34011KT 6SM -SHSN BR SCT015 BKN040
     FM240000 34011KT 6SM BR BKN015
     FM240600 33011KT 4SM BR OVC009=

USA.gov is the U.S. government's official web portal to all federal, state and local government web resources and services.